Time;durP1;ratioP1;P1;durP2;ratioP2;P2;SDS_P1;SDS_P2;PMS_P1;PMS_P2;Temp;Humidity;BMP_temperature;BMP_pressure;BME280_temperature;BME280_humidity;BME280_pressure;Samples;Min_cycle;Max_cycle;Signal;HPM_P1;HPM_P2
2022/10/02 00:02:26;;;;;;;1.80;1.70;;;13.10;99.90;;;;;;5066758;28;20228;-74
2022/10/02 00:04:57;;;;;;;1.70;1.60;;;13.00;99.90;;;;;;5067877;28;20226;-75
2022/10/02 00:07:31;;;;;;;1.70;1.60;;;13.00;99.90;;;;;;5065098;28;20283;-74
2022/10/02 00:10:01;;;;;;;1.80;1.70;;;12.90;99.90;;;;;;5065787;28;20214;-75
2022/10/02 00:12:31;;;;;;;1.83;1.40;;;12.90;99.90;;;;;;5066662;28;20627;-74
2022/10/02 00:15:05;;;;;;;2.10;1.50;;;12.80;99.90;;;;;;5066513;28;20282;-75
2022/10/02 00:17:37;;;;;;;1.35;1.35;;;12.80;99.90;;;;;;5067005;28;20649;-74
2022/10/02 00:20:11;;;;;;;1.65;1.55;;;12.80;99.90;;;;;;5066848;28;20214;-74
2022/10/02 00:22:50;;;;;;;1.63;1.52;;;12.80;99.90;;;;;;5065304;28;20202;-75
2022/10/02 00:25:25;;;;;;;2.25;1.48;;;12.90;99.90;;;;;;5067901;28;20218;-75
2022/10/02 00:28:06;;;;;;;1.45;1.35;;;12.90;99.90;;;;;;5069598;28;20618;-74
2022/10/02 00:30:42;;;;;;;1.48;1.40;;;12.80;99.90;;;;;;5068841;28;20226;-74
2022/10/02 00:33:20;;;;;;;1.60;1.48;;;12.70;99.90;;;;;;5066569;28;20193;-74
2022/10/02 00:36:20;;;;;;;1.27;1.27;;;12.70;99.90;;;;;;5065229;28;20201;-73
2022/10/02 00:38:59;;;;;;;1.20;1.20;;;12.60;99.90;;;;;;5064645;28;20602;-73
2022/10/02 00:42:02;;;;;;;1.30;1.30;;;12.60;99.90;;;;;;5063179;28;20245;-74
2022/10/02 00:44:54;;;;;;;1.20;1.20;;;12.60;99.90;;;;;;5064848;28;20989;-74
2022/10/02 00:47:37;;;;;;;1.23;1.23;;;12.60;99.90;;;;;;5066515;28;20191;-74
2022/10/02 00:50:21;;;;;;;1.35;1.27;;;12.60;99.90;;;;;;5062080;28;20221;-75
2022/10/02 00:53:02;;;;;;;1.52;1.48;;;12.60;99.90;;;;;;5065535;28;20198;-74
2022/10/02 00:55:44;;;;;;;1.50;1.40;;;12.60;99.90;;;;;;5063476;28;20214;-74
2022/10/02 00:58:37;;;;;;;1.98;1.40;;;12.60;99.90;;;;;;5065626;28;20197;-75
2022/10/02 01:01:11;;;;;;;2.17;1.45;;;12.60;99.90;;;;;;5065244;28;20541;-75
2022/10/02 01:03:41;;;;;;;1.58;1.48;;;12.60;99.90;;;;;;5064038;28;20214;-74
2022/10/02 01:06:09;;;;;;;1.58;1.48;;;12.60;99.90;;;;;;5065376;28;20202;-74
2022/10/02 01:08:37;;;;;;;1.63;1.52;;;12.60;99.90;;;;;;5064750;28;20242;-75
2022/10/02 01:11:06;;;;;;;1.23;1.23;;;12.60;99.90;;;;;;5067752;28;20700;-74
2022/10/02 01:13:34;;;;;;;1.50;1.40;;;12.60;99.90;;;;;;5063874;28;20862;-74
2022/10/02 01:16:02;;;;;;;1.33;1.33;;;12.60;99.90;;;;;;5065872;28;20734;-75
2022/10/02 01:18:30;;;;;;;1.63;1.52;;;12.60;99.90;;;;;;5064606;28;20606;-73
2022/10/02 01:21:02;;;;;;;1.30;1.30;;;12.50;99.90;;;;;;5070751;28;20599;-74
2022/10/02 01:23:36;;;;;;;1.10;1.10;;;12.40;99.90;;;;;;5071697;28;20298;-73
2022/10/02 01:26:05;;;;;;;1.33;1.33;;;12.40;99.90;;;;;;5069288;28;20250;-74
2022/10/02 01:28:32;;;;;;;1.20;1.20;;;12.50;99.90;;;;;;5069798;28;20217;-74
2022/10/02 01:31:06;;;;;;;1.33;1.27;;;12.40;99.90;;;;;;5071684;28;20222;-74
2022/10/02 01:33:34;;;;;;;1.10;1.10;;;12.40;99.90;;;;;;5073396;28;20595;-74
2022/10/02 01:36:01;;;;;;;1.38;1.27;;;12.40;99.90;;;;;;5070412;28;20621;-75
2022/10/02 01:38:30;;;;;;;1.10;1.10;;;12.40;99.90;;;;;;5068511;28;20225;-75
2022/10/02 01:40:57;;;;;;;1.17;1.17;;;12.40;99.90;;;;;;5067579;28;20222;-74
2022/10/02 01:43:31;;;;;;;1.27;1.27;;;12.30;99.90;;;;;;5070651;28;20222;-74
2022/10/02 01:46:09;;;;;;;1.15;1.15;;;12.30;99.90;;;;;;5068524;28;20595;-75
2022/10/02 01:48:43;;;;;;;1.45;1.35;;;12.40;99.90;;;;;;5066942;28;20259;-74
2022/10/02 01:51:30;;;;;;;1.17;1.10;;;12.40;99.90;;;;;;5066454;28;20229;-74
2022/10/02 01:54:07;;;;;;;1.40;1.30;;;12.40;99.90;;;;;;5067165;28;20214;-74
2022/10/02 01:56:42;;;;;;;1.50;1.20;;;12.40;99.90;;;;;;5067974;28;20205;-74
2022/10/02 01:59:20;;;;;;;1.20;1.20;;;12.40;99.90;;;;;;5068029;28;20221;-74
2022/10/02 02:01:58;;;;;;;1.35;1.25;;;12.40;99.90;;;;;;5068651;28;20304;-73
2022/10/02 02:04:29;;;;;;;1.10;1.10;;;12.40;99.90;;;;;;5069017;28;20657;-73
2022/10/02 02:07:04;;;;;;;1.13;1.13;;;12.40;99.90;;;;;;5066636;28;20310;-74
2022/10/02 02:09:38;;;;;;;1.20;1.20;;;12.40;99.90;;;;;;5066472;28;20687;-74
2022/10/02 02:12:11;;;;;;;0.93;0.93;;;12.50;99.90;;;;;;5069563;28;20202;-75
2022/10/02 02:14:47;;;;;;;1.25;1.25;;;12.50;99.90;;;;;;5069495;28;20217;-74
2022/10/02 02:17:20;;;;;;;1.25;1.25;;;12.50;99.90;;;;;;5072721;28;20201;-74
2022/10/02 02:19:52;;;;;;;1.42;1.23;;;12.50;99.90;;;;;;5069456;28;20222;-74
2022/10/02 02:22:24;;;;;;;1.05;1.05;;;12.50;99.90;;;;;;5069455;28;20244;-73
2022/10/02 02:24:55;;;;;;;1.10;1.10;;;12.50;99.90;;;;;;5069241;28;20307;-74
2022/10/02 02:27:27;;;;;;;1.38;1.38;;;12.50;99.90;;;;;;5068900;28;20294;-74
2022/10/02 02:30:02;;;;;;;1.38;1.30;;;12.40;99.90;;;;;;5068196;28;20242;-75
2022/10/02 02:32:34;;;;;;;1.20;1.15;;;12.40;99.90;;;;;;5069489;28;20578;-74
2022/10/02 02:35:06;;;;;;;1.40;1.40;;;12.40;99.90;;;;;;5068467;28;20210;-74
2022/10/02 02:37:38;;;;;;;1.10;1.10;;;12.30;99.90;;;;;;5068681;28;20198;-74
2022/10/02 02:40:08;;;;;;;1.08;1.08;;;12.30;99.90;;;;;;5065137;28;20221;-75
2022/10/02 02:42:41;;;;;;;1.33;1.25;;;12.30;99.90;;;;;;5068622;28;20260;-74
2022/10/02 02:45:16;;;;;;;1.40;1.30;;;12.30;99.90;;;;;;5068114;28;20758;-74
2022/10/02 02:47:47;;;;;;;1.48;1.38;;;12.40;99.90;;;;;;5067268;28;20251;-74
2022/10/02 02:50:19;;;;;;;1.20;1.20;;;12.40;99.90;;;;;;5066608;28;20222;-74
2022/10/02 02:52:51;;;;;;;1.40;1.30;;;12.40;99.90;;;;;;5067302;28;20248;-74
2022/10/02 02:55:22;;;;;;;1.85;1.20;;;12.30;99.90;;;;;;5067141;28;20229;-74
2022/10/02 02:57:55;;;;;;;1.02;1.02;;;12.40;99.90;;;;;;5067366;28;20202;-74
2022/10/02 03:00:25;;;;;;;1.40;1.30;;;12.40;99.90;;;;;;5065887;28;20217;-74
2022/10/02 03:02:53;;;;;;;0.93;0.93;;;12.30;99.90;;;;;;5065653;28;20727;-74
2022/10/02 03:05:22;;;;;;;1.30;1.30;;;12.30;99.90;;;;;;5067979;28;20260;-74
2022/10/02 03:07:53;;;;;;;1.00;1.00;;;12.30;99.90;;;;;;5067590;28;20202;-74
2022/10/02 03:10:32;;;;;;;1.30;1.30;;;12.30;99.90;;;;;;5068310;28;20222;-73
2022/10/02 03:13:14;;;;;;;1.17;1.17;;;12.30;99.90;;;;;;5080249;28;20591;-75
2022/10/02 03:15:54;;;;;;;2.40;1.10;;;12.30;99.90;;;;;;5069400;28;20194;-74
2022/10/02 03:18:39;;;;;;;1.20;1.20;;;12.20;99.90;;;;;;5069190;28;20226;-74
2022/10/02 03:21:13;;;;;;;1.10;1.10;;;12.20;99.90;;;;;;5066261;28;20276;-75
2022/10/02 03:23:55;;;;;;;1.05;1.05;;;12.20;99.90;;;;;;5067842;28;20218;-74
2022/10/02 03:26:29;;;;;;;1.17;1.17;;;12.20;99.90;;;;;;5068208;28;20202;-75
2022/10/02 03:28:59;;;;;;;1.00;1.00;;;12.20;99.90;;;;;;5067154;28;20229;-74
2022/10/02 03:31:31;;;;;;;1.08;1.08;;;12.20;99.90;;;;;;5067003;28;20271;-75
2022/10/02 03:34:00;;;;;;;1.20;1.20;;;12.20;99.90;;;;;;5066281;28;20217;-73
2022/10/02 03:36:28;;;;;;;0.98;0.98;;;12.20;99.90;;;;;;5067176;28;20714;-74
2022/10/02 03:38:58;;;;;;;0.80;0.80;;;12.20;99.90;;;;;;5067336;28;20240;-74
2022/10/02 03:41:25;;;;;;;1.00;1.00;;;12.20;99.90;;;;;;5067305;28;20229;-74
2022/10/02 03:43:52;;;;;;;1.50;1.40;;;12.20;99.90;;;;;;5067571;28;20225;-74
2022/10/02 03:46:19;;;;;;;1.05;1.05;;;12.20;99.90;;;;;;5066227;28;20198;-74
2022/10/02 03:48:47;;;;;;;1.30;1.30;;;12.20;99.90;;;;;;5066489;28;20222;-75
2022/10/02 03:51:14;;;;;;;1.20;1.20;;;12.20;99.90;;;;;;5066696;28;20207;-75
2022/10/02 03:53:42;;;;;;;1.20;1.10;;;12.20;99.90;;;;;;5068976;28;20290;-74
2022/10/02 03:56:14;;;;;;;1.10;1.10;;;12.20;99.90;;;;;;5065157;28;20598;-75
2022/10/02 03:58:45;;;;;;;1.10;1.10;;;12.20;99.90;;;;;;5066978;28;20232;-74
2022/10/02 04:01:18;;;;;;;1.40;1.30;;;12.20;99.90;;;;;;5067125;28;20214;-74
2022/10/02 04:03:53;;;;;;;1.00;1.00;;;12.10;99.90;;;;;;5067803;28;20221;-75
2022/10/02 04:06:25;;;;;;;1.00;1.00;;;12.10;99.90;;;;;;5069286;28;20645;-75
2022/10/02 04:08:58;;;;;;;0.90;0.90;;;12.10;99.90;;;;;;5071433;28;20279;-74
2022/10/02 04:11:32;;;;;;;1.20;1.20;;;12.20;99.90;;;;;;5068457;28;20218;-74
2022/10/02 04:14:05;;;;;;;1.20;1.10;;;12.20;99.90;;;;;;5066341;28;20224;-74
2022/10/02 04:16:38;;;;;;;1.00;1.00;;;12.20;99.90;;;;;;5062879;28;20268;-74
2022/10/02 04:19:14;;;;;;;1.00;1.00;;;12.20;99.90;;;;;;5067012;28;20221;-74
2022/10/02 04:21:46;;;;;;;1.10;1.10;;;12.20;99.90;;;;;;5068045;28;20302;-74
2022/10/02 04:24:21;;;;;;;1.02;1.02;;;12.20;99.90;;;;;;5066567;28;20218;-75
2022/10/02 04:27:00;;;;;;;0.90;0.90;;;12.10;99.90;;;;;;5067050;28;20289;-74
2022/10/02 04:29:33;;;;;;;0.80;0.80;;;12.10;99.90;;;;;;5066227;28;20214;-74
2022/10/02 04:32:11;;;;;;;0.93;0.93;;;12.10;99.90;;;;;;5066890;28;20194;-74
2022/10/02 04:34:40;;;;;;;1.08;1.08;;;12.10;99.90;;;;;;5066333;28;20221;-74
2022/10/02 04:37:45;;;;;;;1.02;1.02;;;12.10;99.90;;;;;;5066710;28;20209;-74
2022/10/02 04:40:29;;;;;;;1.00;1.00;;;12.00;99.90;;;;;;4982480;28;20711;-74
2022/10/02 04:43:10;;;;;;;1.10;1.10;;;12.00;99.90;;;;;;4982956;28;20213;-75
2022/10/02 04:45:58;;;;;;;1.08;1.08;;;12.00;99.90;;;;;;5039379;28;20568;-74
2022/10/02 04:49:08;;;;;;;1.25;1.23;;;11.90;99.90;;;;;;5065959;28;20214;-74
2022/10/02 04:51:48;;;;;;;1.00;1.00;;;11.90;99.90;;;;;;5065754;28;20213;-74
2022/10/02 04:54:37;;;;;;;0.90;0.90;;;11.80;99.90;;;;;;5065511;28;20566;-74
2022/10/02 04:57:17;;;;;;;0.90;0.90;;;11.80;99.90;;;;;;5064517;28;20209;-74
2022/10/02 05:00:07;;;;;;;1.02;1.02;;;11.70;99.90;;;;;;5063303;28;20756;-74
2022/10/02 05:02:49;;;;;;;1.00;1.00;;;11.80;99.90;;;;;;5070662;28;20198;-74
2022/10/02 05:05:29;;;;;;;1.20;1.20;;;11.80;99.90;;;;;;5066296;28;20704;-74
2022/10/02 05:08:25;;;;;;;1.10;1.10;;;11.80;99.90;;;;;;5065876;28;20202;-73
2022/10/02 05:11:05;;;;;;;1.30;1.20;;;11.80;99.90;;;;;;5057312;28;20295;-74
2022/10/02 05:14:02;;;;;;;1.00;1.00;;;11.70;99.90;;;;;;5066000;28;20217;-74
2022/10/02 05:16:41;;;;;;;0.90;0.90;;;11.70;99.90;;;;;;5061995;28;20583;-75
2022/10/02 05:19:22;;;;;;;1.00;1.00;;;11.70;99.90;;;;;;5065150;28;20260;-74
2022/10/02 05:22:06;;;;;;;1.20;1.10;;;11.80;99.90;;;;;;5065226;28;20226;-74
2022/10/02 05:24:50;;;;;;;1.00;1.00;;;11.80;99.90;;;;;;5064222;28;20218;-74
2022/10/02 05:27:38;;;;;;;1.85;0.90;;;11.90;99.90;;;;;;5064043;28;20566;-75
2022/10/02 05:30:11;;;;;;;0.98;0.98;;;11.90;99.90;;;;;;5064400;28;20736;-75
2022/10/02 05:33:02;;;;;;;0.90;0.90;;;11.90;99.90;;;;;;5064069;28;20202;-75
2022/10/02 05:35:55;;;;;;;0.90;0.90;;;12.00;99.90;;;;;;5060733;28;20270;-75
2022/10/02 05:38:34;;;;;;;1.20;1.20;;;12.00;99.90;;;;;;5065107;28;20261;-75
2022/10/02 05:41:09;;;;;;;1.00;1.00;;;12.00;99.90;;;;;;5066300;28;20214;-75
2022/10/02 05:43:42;;;;;;;1.25;1.25;;;12.10;99.90;;;;;;5064053;28;20218;-74
2022/10/02 05:46:14;;;;;;;1.30;1.20;;;12.10;99.90;;;;;;5065167;28;20213;-75
2022/10/02 05:48:46;;;;;;;0.82;0.82;;;12.20;99.90;;;;;;5067117;28;20772;-74
2022/10/02 05:51:20;;;;;;;1.05;1.05;;;12.20;99.90;;;;;;5063836;28;20219;-74
2022/10/02 05:53:55;;;;;;;1.00;1.00;;;12.20;99.90;;;;;;5066127;28;20271;-74
2022/10/02 05:56:30;;;;;;;0.90;0.90;;;12.20;99.90;;;;;;5066100;28;20453;-74
2022/10/02 05:59:02;;;;;;;1.20;1.20;;;12.20;99.90;;;;;;5062352;28;20222;-74
2022/10/02 06:01:33;;;;;;;1.10;1.10;;;12.20;99.90;;;;;;5066375;28;20233;-74
2022/10/02 06:04:06;;;;;;;1.13;1.13;;;12.20;99.90;;;;;;5063387;28;20223;-74
2022/10/02 06:06:38;;;;;;;0.93;0.93;;;12.30;99.90;;;;;;5065096;28;20251;-74
2022/10/02 06:09:12;;;;;;;1.27;1.20;;;12.30;99.90;;;;;;5068900;28;20634;-74
2022/10/02 06:11:46;;;;;;;0.90;0.90;;;12.30;99.90;;;;;;5071429;28;20888;-74
2022/10/02 06:14:18;;;;;;;1.00;1.00;;;12.30;99.90;;;;;;5070023;28;20232;-74
2022/10/02 06:16:49;;;;;;;1.00;1.00;;;12.50;99.90;;;;;;5068693;28;20667;-73
2022/10/02 06:19:19;;;;;;;1.02;1.02;;;12.80;99.90;;;;;;5068007;28;20711;-74
2022/10/02 06:21:50;;;;;;;1.20;1.20;;;13.00;99.90;;;;;;5070085;28;20214;-74
2022/10/02 06:24:24;;;;;;;1.33;1.30;;;13.40;99.90;;;;;;5070179;28;20218;-74
2022/10/02 06:26:59;;;;;;;1.00;1.00;;;14.00;99.90;;;;;;5069649;28;20300;-74
2022/10/02 06:29:32;;;;;;;1.60;1.50;;;14.50;99.90;;;;;;5066677;28;20221;-74
2022/10/02 06:32:10;;;;;;;1.45;1.35;;;14.60;99.90;;;;;;5069665;28;20236;-74
2022/10/02 06:34:37;;;;;;;1.40;1.40;;;14.70;99.90;;;;;;5068066;28;20219;-74
2022/10/02 06:37:28;;;;;;;1.65;1.55;;;14.80;99.90;;;;;;5065959;28;20645;-75
2022/10/02 06:40:08;;;;;;;1.50;1.40;;;15.10;99.90;;;;;;5069626;28;20234;-75
2022/10/02 06:42:46;;;;;;;1.30;1.30;;;15.70;99.90;;;;;;5068010;28;20216;-75
2022/10/02 06:45:24;;;;;;;1.50;1.40;;;16.30;99.90;;;;;;5064656;28;20225;-75
2022/10/02 06:48:04;;;;;;;1.42;1.33;;;17.00;99.90;;;;;;5070675;28;20213;-74
2022/10/02 06:50:42;;;;;;;1.50;1.40;;;17.50;99.90;;;;;;5064648;28;20309;-74
2022/10/02 06:53:27;;;;;;;4.05;1.27;;;17.70;99.90;;;;;;5069114;28;20244;-74
2022/10/02 06:56:08;;;;;;;1.27;1.15;;;17.80;99.90;;;;;;5067567;28;20202;-75
2022/10/02 06:58:50;;;;;;;2.97;1.23;;;17.90;99.90;;;;;;5067195;28;20703;-74
2022/10/02 07:01:28;;;;;;;1.38;1.27;;;18.20;99.90;;;;;;5070706;28;20272;-74
2022/10/02 07:04:19;;;;;;;1.00;1.00;;;18.40;99.90;;;;;;5068381;28;20228;-75
2022/10/02 07:07:00;;;;;;;1.05;1.05;;;18.70;99.90;;;;;;5066152;28;20201;-74
2022/10/02 07:09:47;;;;;;;1.13;1.02;;;19.00;99.90;;;;;;5066922;28;20275;-74
2022/10/02 07:12:38;;;;;;;1.10;1.10;;;19.30;99.90;;;;;;5067147;28;20193;-74
2022/10/02 07:15:41;;;;;;;1.33;1.20;;;19.40;99.90;;;;;;5064322;28;20643;-75
2022/10/02 07:18:20;;;;;;;1.17;1.10;;;19.40;99.90;;;;;;5065707;28;20197;-74
2022/10/02 07:21:00;;;;;;;0.90;0.90;;;19.30;99.90;;;;;;5067070;28;20309;-75
2022/10/02 07:23:51;;;;;;;1.00;1.00;;;19.30;99.90;;;;;;5063072;28;20221;-75
2022/10/02 07:26:41;;;;;;;0.98;0.93;;;19.30;99.90;;;;;;5067202;28;20207;-76
2022/10/02 07:29:32;;;;;;;2.17;1.00;;;19.30;99.90;;;;;;5067576;28;20287;-74
2022/10/02 07:32:38;;;;;;;1.33;1.23;;;19.40;99.90;;;;;;5065818;28;20594;-76
2022/10/02 07:35:32;;;;;;;3.53;1.40;;;19.60;99.90;;;;;;5067641;28;20225;-76
2022/10/02 07:38:18;;;;;;;1.20;1.10;;;19.70;99.90;;;;;;5064801;28;20510;-76
2022/10/02 07:40:59;;;;;;;1.15;1.15;;;19.30;99.90;;;;;;5068924;28;20221;-80
2022/10/02 07:43:49;;;;;;;0.93;0.93;;;19.40;99.90;;;;;;5068804;28;20792;-77
2022/10/02 07:46:23;;;;;;;0.85;0.85;;;19.80;99.90;;;;;;5066672;28;20562;-76
2022/10/02 07:49:07;;;;;;;1.17;1.08;;;20.00;99.90;;;;;;5067253;28;20213;-77
2022/10/02 07:51:47;;;;;;;1.23;1.05;;;20.00;99.90;;;;;;5068311;28;20217;-77
2022/10/02 07:54:41;;;;;;;1.30;1.20;;;19.90;99.90;;;;;;5065886;28;20237;-77
2022/10/02 07:57:22;;;;;;;1.40;1.30;;;19.80;99.90;;;;;;5064458;28;20237;-78
2022/10/02 07:59:51;;;;;;;1.48;0.95;;;19.80;99.90;;;;;;5066353;28;20280;-77
2022/10/02 08:02:26;;;;;;;1.27;0.88;;;19.90;99.90;;;;;;5068812;28;20282;-77
2022/10/02 08:04:59;;;;;;;0.90;0.90;;;19.90;99.90;;;;;;5068401;28;20750;-77
2022/10/02 08:07:28;;;;;;;1.00;1.00;;;19.80;99.90;;;;;;5068235;28;20198;-77
2022/10/02 08:09:58;;;;;;;0.80;0.80;;;19.80;99.90;;;;;;5067664;28;20230;-76
2022/10/02 08:12:32;;;;;;;0.80;0.80;;;19.70;99.90;;;;;;5071904;28;20712;-76
2022/10/02 08:15:01;;;;;;;0.80;0.80;;;19.80;99.90;;;;;;5066883;28;20218;-77
2022/10/02 08:17:33;;;;;;;1.30;1.00;;;20.10;99.90;;;;;;5069896;28;20202;-76
2022/10/02 08:20:08;;;;;;;0.93;0.90;;;20.20;99.90;;;;;;5070437;28;20582;-76
2022/10/02 08:22:38;;;;;;;1.27;0.80;;;20.20;99.90;;;;;;5067322;28;20210;-81
2022/10/02 08:25:14;;;;;;;1.00;1.00;;;20.20;99.90;;;;;;5065198;28;20210;-77
2022/10/02 08:27:51;;;;;;;0.90;0.90;;;20.30;99.90;;;;;;5068772;28;20656;-76
2022/10/02 08:30:19;;;;;;;0.80;0.80;;;20.40;99.90;;;;;;5068014;28;20222;-76
2022/10/02 08:32:46;;;;;;;0.88;0.88;;;20.30;99.90;;;;;;5070025;28;20194;-75
2022/10/02 08:35:18;;;;;;;0.80;0.80;;;20.10;99.90;;;;;;5066209;28;20218;-75
2022/10/02 08:38:00;;;;;;;1.02;1.00;;;20.10;99.90;;;;;;5067215;28;20197;-76
2022/10/02 08:41:16;;;;;;;1.35;0.90;;;20.00;99.90;;;;;;5061778;28;20222;-75
2022/10/02 08:44:17;;;;;;;1.10;1.00;;;20.00;99.90;;;;;;5069593;28;20240;-75
2022/10/02 08:47:39;;;;;;;1.90;0.80;;;20.10;99.90;;;;;;5070839;28;20197;-76
2022/10/02 08:50:36;;;;;;;1.27;0.80;;;20.10;99.90;;;;;;5070546;28;20221;-75
2022/10/02 08:53:32;;;;;;;0.80;0.80;;;20.00;99.90;;;;;;5051261;28;20194;-75
2022/10/02 08:56:14;;;;;;;0.90;0.90;;;20.10;99.90;;;;;;5070129;28;20202;-75
2022/10/02 08:59:17;;;;;;;1.65;0.90;;;20.20;99.90;;;;;;5069733;28;20218;-76
2022/10/02 09:02:18;;;;;;;1.02;1.00;;;20.30;99.90;;;;;;5070872;28;20217;-75
2022/10/02 09:05:11;;;;;;;0.90;0.90;;;20.50;99.90;;;;;;5061660;28;20213;-75
2022/10/02 09:08:14;;;;;;;1.05;0.95;;;20.80;99.90;;;;;;5068825;28;20202;-76
2022/10/02 09:11:26;;;;;;;0.70;0.70;;;20.70;99.90;;;;;;5069467;28;20225;-76
2022/10/02 09:14:23;;;;;;;0.70;0.70;;;20.80;99.90;;;;;;5035023;28;20214;-75
2022/10/02 09:17:09;;;;;;;1.95;0.95;;;20.80;99.90;;;;;;5041961;28;20205;-75
2022/10/02 09:19:50;;;;;;;0.90;0.90;;;21.00;99.90;;;;;;5071248;28;20241;-75
2022/10/02 09:22:48;;;;;;;1.65;0.90;;;21.30;99.90;;;;;;5067700;28;20715;-76
2022/10/02 09:25:28;;;;;;;1.23;0.90;;;21.40;99.90;;;;;;5063561;28;20264;-76
2022/10/02 09:28:38;;;;;;;0.90;0.90;;;21.20;99.90;;;;;;5069570;28;20238;-76
2022/10/02 09:31:42;;;;;;;3.83;0.90;;;21.00;99.90;;;;;;5066640;28;20271;-75
2022/10/02 09:34:47;;;;;;;0.90;0.90;;;21.30;99.90;;;;;;5067658;28;20214;-75
2022/10/02 09:37:46;;;;;;;0.85;0.85;;;21.40;99.90;;;;;;5066010;28;20248;-75
2022/10/02 09:40:53;;;;;;;0.70;0.70;;;21.40;99.90;;;;;;5067361;28;20711;-75
2022/10/02 09:44:00;;;;;;;0.82;0.82;;;21.40;99.90;;;;;;5067365;28;20694;-76
2022/10/02 09:46:59;;;;;;;2.22;0.93;;;21.70;99.90;;;;;;5068740;28;20201;-75
2022/10/02 09:49:59;;;;;;;1.70;0.82;;;22.00;99.90;;;;;;5067890;28;20692;-74
2022/10/02 09:52:53;;;;;;;0.85;0.82;;;22.10;99.90;;;;;;5069768;28;20202;-75
2022/10/02 09:55:50;;;;;;;0.70;0.70;;;22.00;99.90;;;;;;5068127;28;20232;-74
2022/10/02 09:58:49;;;;;;;0.80;0.80;;;22.10;99.90;;;;;;5069262;28;20225;-74
2022/10/02 10:01:39;;;;;;;0.85;0.85;;;22.40;99.90;;;;;;5069465;28;20723;-75
2022/10/02 10:04:30;;;;;;;1.02;0.80;;;22.30;99.90;;;;;;5071292;28;20221;-75
2022/10/02 10:07:27;;;;;;;0.65;0.65;;;22.20;99.90;;;;;;5049460;28;20190;-74
2022/10/02 10:10:37;;;;;;;1.25;0.80;;;22.30;99.90;;;;;;5071500;28;20220;-74
2022/10/02 10:13:47;;;;;;;1.77;0.82;;;22.40;99.90;;;;;;5051422;28;20606;-74
2022/10/02 10:16:42;;;;;;;0.80;0.80;;;22.20;99.90;;;;;;5070072;28;20209;-74
2022/10/02 10:19:44;;;;;;;1.92;0.88;;;22.30;99.90;;;;;;5071190;28;20218;-75
2022/10/02 10:22:45;;;;;;;1.17;1.00;;;22.20;99.90;;;;;;5064699;28;20221;-75
2022/10/02 10:25:31;;;;;;;0.80;0.80;;;22.10;99.90;;;;;;5062243;28;20213;-76
2022/10/02 10:28:32;;;;;;;0.65;0.65;;;22.20;99.90;;;;;;5069033;28;20746;-75
2022/10/02 10:31:29;;;;;;;0.57;0.57;;;22.10;99.90;;;;;;5070183;28;20248;-75
2022/10/02 10:34:35;;;;;;;0.80;0.80;;;22.00;99.90;;;;;;5068862;28;20297;-74
2022/10/02 10:40:34;;;;;;;0.63;0.63;;;22.20;99.90;;;;;;5070753;28;20216;-75
2022/10/02 10:43:40;;;;;;;0.80;0.80;;;22.70;99.90;;;;;;5069148;28;20225;-74
2022/10/02 10:46:30;;;;;;;1.23;0.70;;;23.10;99.90;;;;;;5070302;28;20202;-74
2022/10/02 10:49:16;;;;;;;1.27;0.85;;;23.30;99.90;;;;;;5069062;28;20210;-75
2022/10/02 10:51:48;;;;;;;0.80;0.80;;;23.30;99.90;;;;;;5068766;28;20233;-75
2022/10/02 10:54:54;;;;;;;0.63;0.63;;;23.30;99.90;;;;;;5069398;28;20210;-76
2022/10/02 10:57:58;;;;;;;0.70;0.70;;;23.20;99.90;;;;;;5069843;28;20198;-77
2022/10/02 11:00:28;;;;;;;0.63;0.63;;;23.00;99.90;;;;;;5083686;28;20304;-76
2022/10/02 11:03:20;;;;;;;3.10;0.70;;;23.10;99.90;;;;;;5087296;28;20707;-76
2022/10/02 11:06:16;;;;;;;0.75;0.75;;;23.20;99.90;;;;;;5089491;28;20705;-74
2022/10/02 11:09:27;;;;;;;0.70;0.70;;;23.10;99.90;;;;;;5087048;28;20226;-76
2022/10/02 11:12:11;;;;;;;0.70;0.70;;;23.00;99.90;;;;;;5088678;28;20209;-74
2022/10/02 11:14:51;;;;;;;0.70;0.70;;;22.80;99.90;;;;;;5086226;28;20214;-76
2022/10/02 11:17:47;;;;;;;0.60;0.60;;;22.80;99.90;;;;;;5087262;28;20198;-76
2022/10/02 11:20:56;;;;;;;0.50;0.50;;;22.80;99.90;;;;;;5086868;28;20217;-76
2022/10/02 11:23:49;;;;;;;0.60;0.60;;;22.70;99.90;;;;;;5043599;28;20270;-74
2022/10/02 11:26:31;;;;;;;0.60;0.60;;;22.70;99.90;;;;;;5077514;28;20200;-76
2022/10/02 11:29:15;;;;;;;0.60;0.60;;;22.80;99.90;;;;;;5085428;28;20209;-76
2022/10/02 11:32:08;;;;;;;0.65;0.65;;;23.00;99.90;;;;;;5088951;28;20221;-76
2022/10/02 11:35:01;;;;;;;0.57;0.57;;;23.30;99.90;;;;;;5085181;28;20226;-76
2022/10/02 11:37:55;;;;;;;0.80;0.70;;;23.40;99.90;;;;;;5084099;28;20193;-76
2022/10/02 11:40:55;;;;;;;0.57;0.57;;;23.20;99.90;;;;;;5085379;28;20216;-76
2022/10/02 11:43:40;;;;;;;0.70;0.68;;;22.80;99.90;;;;;;5085806;28;20228;-76
2022/10/02 11:46:36;;;;;;;0.60;0.60;;;22.60;99.90;;;;;;5087212;28;20197;-76
2022/10/02 11:49:34;;;;;;;1.38;0.57;;;22.60;99.90;;;;;;5086661;28;20241;-76
2022/10/02 11:52:15;;;;;;;1.08;0.50;;;22.50;99.90;;;;;;5088464;28;20296;-76
2022/10/02 11:55:04;;;;;;;1.38;0.60;;;22.60;99.90;;;;;;5086077;28;20217;-76
2022/10/02 11:57:41;;;;;;;0.40;0.40;;;23.10;99.90;;;;;;5085702;28;20572;-76
2022/10/02 12:00:17;;;;;;;0.60;0.60;;;23.30;99.90;;;;;;5085635;28;20607;-76
2022/10/02 12:02:54;;;;;;;0.60;0.60;;;23.10;99.90;;;;;;5088680;28;20217;-76
2022/10/02 12:05:44;;;;;;;0.63;0.63;;;23.30;99.90;;;;;;5068129;28;20221;-76
2022/10/02 12:08:17;;;;;;;0.70;0.70;;;22.90;99.90;;;;;;5066408;28;20290;-76
2022/10/02 12:10:55;;;;;;;0.50;0.50;;;22.60;99.90;;;;;;5069776;28;20719;-76
2022/10/02 12:13:53;;;;;;;0.93;0.82;;;22.50;99.90;;;;;;5068758;28;20240;-76
2022/10/02 12:16:32;;;;;;;0.52;0.52;;;22.30;99.90;;;;;;5069198;28;20282;-77
2022/10/02 12:19:19;;;;;;;0.60;0.60;;;22.40;99.90;;;;;;5066857;28;20218;-76
2022/10/02 12:27:50;;;;;;;0.73;0.73;;;22.40;99.90;;;;;;5064830;28;20198;-76
2022/10/02 12:30:21;;;;;;;0.60;0.60;;;22.20;99.90;;;;;;5067305;28;20268;-76
2022/10/02 12:33:00;;;;;;;0.70;0.70;;;22.00;99.90;;;;;;5069502;28;20198;-76
2022/10/02 12:35:46;;;;;;;0.50;0.50;;;22.10;99.90;;;;;;5067554;28;20256;-76
2022/10/02 12:38:26;;;;;;;0.88;0.80;;;22.20;99.90;;;;;;5068935;28;20234;-76
2022/10/02 12:41:07;;;;;;;0.70;0.70;;;22.40;99.90;;;;;;5068796;28;20217;-76
2022/10/02 12:44:08;;;;;;;0.70;0.70;;;22.40;99.90;;;;;;5068300;28;20711;-76
2022/10/02 12:47:05;;;;;;;0.80;0.80;;;22.60;99.90;;;;;;5059125;28;20255;-77
2022/10/02 12:49:49;;;;;;;0.70;0.70;;;22.70;99.90;;;;;;5069017;28;20265;-76
2022/10/02 12:53:03;;;;;;;0.60;0.60;;;22.60;99.90;;;;;;5067218;28;20252;-77
2022/10/02 12:56:03;;;;;;;0.90;0.90;;;22.70;99.90;;;;;;5054818;28;20222;-76
2022/10/02 12:58:42;;;;;;;0.70;0.70;;;22.90;99.90;;;;;;5064412;28;20221;-76
2022/10/02 13:01:54;;;;;;;1.15;0.70;;;23.20;99.90;;;;;;5068740;28;20217;-75
2022/10/02 13:05:05;;;;;;;0.75;0.75;;;23.50;99.90;;;;;;5025703;28;20230;-76
2022/10/02 13:08:18;;;;;;;0.80;0.80;;;23.90;99.90;;;;;;5053329;28;20253;-76
2022/10/02 13:10:49;;;;;;;0.60;0.60;;;24.20;99.90;;;;;;5085651;28;20225;-76
2022/10/02 13:13:45;;;;;;;0.60;0.60;;;24.40;99.90;;;;;;5086942;28;20221;-76
2022/10/02 13:16:23;;;;;;;0.70;0.70;;;24.50;99.90;;;;;;5088015;28;20601;-76
2022/10/02 13:19:03;;;;;;;0.60;0.60;;;24.60;99.90;;;;;;5090926;28;20222;-76
2022/10/02 13:21:40;;;;;;;0.60;0.60;;;24.40;99.90;;;;;;5085988;28;20217;-76
2022/10/02 13:24:32;;;;;;;1.35;0.82;;;24.20;99.90;;;;;;5090330;28;20243;-76
2022/10/02 13:27:12;;;;;;;0.70;0.70;;;24.10;99.90;;;;;;5088771;28;20198;-76
2022/10/02 13:30:00;;;;;;;0.60;0.60;;;24.10;99.90;;;;;;5089418;28;20783;-76
2022/10/02 13:32:43;;;;;;;0.68;0.68;;;24.10;99.90;;;;;;5088675;28;20725;-76
2022/10/02 13:35:38;;;;;;;0.60;0.60;;;24.00;99.90;;;;;;5086825;28;20636;-76
2022/10/02 13:38:25;;;;;;;0.70;0.70;;;24.10;99.90;;;;;;5088700;28;20197;-76
2022/10/02 13:41:02;;;;;;;0.80;0.80;;;24.10;99.90;;;;;;5090463;28;20209;-76
2022/10/02 13:43:49;;;;;;;0.73;0.73;;;24.20;99.90;;;;;;5088676;28;20721;-76
2022/10/02 13:46:29;;;;;;;0.80;0.80;;;24.00;99.90;;;;;;5088253;28;20197;-76
2022/10/02 13:49:07;;;;;;;0.70;0.70;;;24.00;99.90;;;;;;5092859;28;20224;-76
2022/10/02 13:51:44;;;;;;;0.70;0.70;;;23.90;99.90;;;;;;5089874;28;20213;-76
2022/10/02 13:54:47;;;;;;;0.82;0.82;;;23.60;99.90;;;;;;5090784;28;20217;-76
2022/10/02 13:57:30;;;;;;;0.70;0.70;;;23.30;99.90;;;;;;5091440;28;20205;-76
2022/10/02 14:00:08;;;;;;;0.70;0.70;;;23.10;99.90;;;;;;5088018;28;20283;-76
2022/10/02 14:02:51;;;;;;;0.70;0.70;;;23.00;99.90;;;;;;5088486;28;20196;-76
2022/10/02 14:05:29;;;;;;;0.80;0.80;;;22.90;99.90;;;;;;5086186;28;20766;-76
2022/10/02 14:08:21;;;;;;;0.80;0.80;;;22.80;99.90;;;;;;5086583;28;20197;-76
2022/10/02 14:11:01;;;;;;;0.60;0.60;;;22.70;99.90;;;;;;5088395;28;20274;-76
2022/10/02 14:13:50;;;;;;;0.60;0.60;;;22.80;99.90;;;;;;5088366;28;20217;-76
2022/10/02 14:16:43;;;;;;;0.98;0.82;;;22.90;99.90;;;;;;5090008;28;20205;-76